sensor_id;sensor_type;location;lat;lon;timestamp;pressure;altitude;pressure_sealevel;temperature;humidity
12247;BME280;6186;52.022;4.692;2023-10-09T00:01:12;102120.06;;;16.05;100.00
12247;BME280;6186;52.022;4.692;2023-10-09T00:03:37;102117.41;;;16.07;100.00
12247;BME280;6186;52.022;4.692;2023-10-09T00:06:03;102114.69;;;16.08;100.00
12247;BME280;6186;52.022;4.692;2023-10-09T00:08:28;102118.22;;;16.09;100.00
12247;BME280;6186;52.022;4.692;2023-10-09T00:10:53;102112.03;;;16.08;100.00
12247;BME280;6186;52.022;4.692;2023-10-09T00:13:22;102110.25;;;16.09;100.00
12247;BME280;6186;52.022;4.692;2023-10-09T00:15:47;102117.25;;;16.11;100.00
12247;BME280;6186;52.022;4.692;2023-10-09T00:18:13;102111.94;;;16.11;100.00
12247;BME280;6186;52.022;4.692;2023-10-09T00:20:38;102119.84;;;16.14;100.00
12247;BME280;6186;52.022;4.692;2023-10-09T00:23:03;102127.72;;;16.17;100.00
12247;BME280;6186;52.022;4.692;2023-10-09T00:25:29;102116.09;;;16.21;100.00
12247;BME280;6186;52.022;4.692;2023-10-09T00:27:54;102116.81;;;16.26;100.00
12247;BME280;6186;52.022;4.692;2023-10-09T00:30:19;102120.25;;;16.30;100.00
12247;BME280;6186;52.022;4.692;2023-10-09T00:32:45;102115.69;;;16.35;100.00
12247;BME280;6186;52.022;4.692;2023-10-09T00:35:10;102115.56;;;16.39;100.00
12247;BME280;6186;52.022;4.692;2023-10-09T00:37:36;102109.25;;;16.43;100.00
12247;BME280;6186;52.022;4.692;2023-10-09T00:40:01;102118.84;;;16.49;100.00
12247;BME280;6186;52.022;4.692;2023-10-09T00:42:26;102121.38;;;16.53;100.00
12247;BME280;6186;52.022;4.692;2023-10-09T00:44:51;102116.84;;;16.57;100.00
12247;BME280;6186;52.022;4.692;2023-10-09T00:47:17;102114.09;;;16.60;100.00
12247;BME280;6186;52.022;4.692;2023-10-09T00:49:43;102113.03;;;16.65;100.00
12247;BME280;6186;52.022;4.692;2023-10-09T00:52:08;102111.19;;;16.69;100.00
12247;BME280;6186;52.022;4.692;2023-10-09T00:54:34;102114.59;;;16.72;100.00
12247;BME280;6186;52.022;4.692;2023-10-09T00:56:59;102101.22;;;16.75;100.00
12247;BME280;6186;52.022;4.692;2023-10-09T00:59:25;102103.78;;;16.78;100.00
12247;BME280;6186;52.022;4.692;2023-10-09T01:01:50;102089.66;;;16.76;100.00
12247;BME280;6186;52.022;4.692;2023-10-09T01:04:15;102099.13;;;16.85;100.00
12247;BME280;6186;52.022;4.692;2023-10-09T01:06:42;102098.19;;;16.87;100.00
12247;BME280;6186;52.022;4.692;2023-10-09T01:09:08;102101.66;;;16.89;100.00
12247;BME280;6186;52.022;4.692;2023-10-09T01:11:34;102095.34;;;16.92;100.00
12247;BME280;6186;52.022;4.692;2023-10-09T01:13:59;102094.41;;;16.94;100.00
12247;BME280;6186;52.022;4.692;2023-10-09T01:16:24;102089.84;;;16.98;100.00
12247;BME280;6186;52.022;4.692;2023-10-09T01:18:55;102088.91;;;17.01;100.00
12247;BME280;6186;52.022;4.692;2023-10-09T01:21:21;102073.75;;;17.03;100.00
12247;BME280;6186;52.022;4.692;2023-10-09T01:23:46;102064.91;;;17.02;100.00
12247;BME280;6186;52.022;4.692;2023-10-09T01:26:12;102069.16;;;17.08;100.00
12247;BME280;6186;52.022;4.692;2023-10-09T01:28:37;102054.06;;;17.08;100.00
12247;BME280;6186;52.022;4.692;2023-10-09T01:31:02;102058.44;;;17.09;100.00
12247;BME280;6186;52.022;4.692;2023-10-09T01:33:27;102062.00;;;17.10;100.00
12247;BME280;6186;52.022;4.692;2023-10-09T01:35:53;102054.81;;;17.12;100.00
12247;BME280;6186;52.022;4.692;2023-10-09T01:38:18;102047.81;;;17.09;100.00
12247;BME280;6186;52.022;4.692;2023-10-09T01:40:43;102049.56;;;17.10;100.00
12247;BME280;6186;52.022;4.692;2023-10-09T01:43:09;102044.13;;;17.13;100.00
12247;BME280;6186;52.022;4.692;2023-10-09T01:45:34;102037.13;;;17.11;100.00
12247;BME280;6186;52.022;4.692;2023-10-09T01:47:59;102052.06;;;17.15;100.00
12247;BME280;6186;52.022;4.692;2023-10-09T01:50:24;102046.72;;;17.15;100.00
12247;BME280;6186;52.022;4.692;2023-10-09T01:52:50;102052.94;;;17.15;100.00
12247;BME280;6186;52.022;4.692;2023-10-09T01:55:15;102044.94;;;17.15;100.00
12247;BME280;6186;52.022;4.692;2023-10-09T01:57:40;102043.16;;;17.16;100.00
12247;BME280;6186;52.022;4.692;2023-10-09T02:00:06;102049.31;;;17.18;100.00
12247;BME280;6186;52.022;4.692;2023-10-09T02:02:32;102044.88;;;17.18;100.00
12247;BME280;6186;52.022;4.692;2023-10-09T02:05:03;102052.78;;;17.20;100.00
12247;BME280;6186;52.022;4.692;2023-10-09T02:07:28;102026.50;;;17.11;100.00
12247;BME280;6186;52.022;4.692;2023-10-09T02:09:56;102039.47;;;17.20;100.00
12247;BME280;6186;52.022;4.692;2023-10-09T02:12:22;102046.53;;;17.21;100.00
12247;BME280;6186;52.022;4.692;2023-10-09T02:14:47;102041.38;;;17.16;100.00
12247;BME280;6186;52.022;4.692;2023-10-09T02:17:13;102024.59;;;17.14;100.00
12247;BME280;6186;52.022;4.692;2023-10-09T02:19:38;102027.91;;;17.21;100.00
12247;BME280;6186;52.022;4.692;2023-10-09T02:22:03;102015.53;;;17.20;100.00
12247;BME280;6186;52.022;4.692;2023-10-09T02:24:28;102005.03;;;17.15;100.00
12247;BME280;6186;52.022;4.692;2023-10-09T02:26:53;102012.06;;;17.18;100.00
12247;BME280;6186;52.022;4.692;2023-10-09T02:29:19;102027.09;;;17.19;100.00
12247;BME280;6186;52.022;4.692;2023-10-09T02:31:44;102020.03;;;17.18;100.00
12247;BME280;6186;52.022;4.692;2023-10-09T02:34:10;102033.34;;;17.18;100.00
12247;BME280;6186;52.022;4.692;2023-10-09T02:36:35;102028.03;;;17.18;100.00
12247;BME280;6186;52.022;4.692;2023-10-09T02:39:00;102028.91;;;17.18;100.00
12247;BME280;6186;52.022;4.692;2023-10-09T02:41:25;102025.31;;;17.19;100.00
12247;BME280;6186;52.022;4.692;2023-10-09T02:43:51;102027.91;;;17.21;100.00
12247;BME280;6186;52.022;4.692;2023-10-09T02:46:17;102025.25;;;17.21;100.00
12247;BME280;6186;52.022;4.692;2023-10-09T02:48:49;102021.69;;;17.22;100.00
12247;BME280;6186;52.022;4.692;2023-10-09T02:51:15;102018.03;;;17.24;100.00
12247;BME280;6186;52.022;4.692;2023-10-09T02:53:40;102015.34;;;17.26;100.00
12247;BME280;6186;52.022;4.692;2023-10-09T02:56:05;102011.75;;;17.27;100.00
12247;BME280;6186;52.022;4.692;2023-10-09T02:58:30;102005.50;;;17.28;100.00
12247;BME280;6186;52.022;4.692;2023-10-09T03:00:56;102011.75;;;17.27;100.00
12247;BME280;6186;52.022;4.692;2023-10-09T03:03:21;102013.44;;;17.29;100.00
12247;BME280;6186;52.022;4.692;2023-10-09T03:05:46;102003.69;;;17.28;100.00
12247;BME280;6186;52.022;4.692;2023-10-09T03:08:11;102003.69;;;17.28;100.00
12247;BME280;6186;52.022;4.692;2023-10-09T03:10:36;101994.13;;;17.23;100.00
12247;BME280;6186;52.022;4.692;2023-10-09T03:13:02;102006.34;;;17.28;100.00
12247;BME280;6186;52.022;4.692;2023-10-09T03:15:27;102008.97;;;17.30;100.00
12247;BME280;6186;52.022;4.692;2023-10-09T03:17:52;101989.75;;;17.22;100.00
12247;BME280;6186;52.022;4.692;2023-10-09T03:20:17;101997.53;;;17.28;100.00
12247;BME280;6186;52.022;4.692;2023-10-09T03:22:43;102000.19;;;17.28;100.00
12247;BME280;6186;52.022;4.692;2023-10-09T03:25:09;102002.03;;;17.26;100.00
12247;BME280;6186;52.022;4.692;2023-10-09T03:27:34;102002.03;;;17.26;100.00
12247;BME280;6186;52.022;4.692;2023-10-09T03:29:59;102002.84;;;17.28;100.00
12247;BME280;6186;52.022;4.692;2023-10-09T03:32:25;101997.53;;;17.28;100.00
12247;BME280;6186;52.022;4.692;2023-10-09T03:34:50;101991.25;;;17.29;100.00
12247;BME280;6186;52.022;4.692;2023-10-09T03:37:15;102005.38;;;17.31;100.00
12247;BME280;6186;52.022;4.692;2023-10-09T03:39:40;102026.63;;;17.32;100.00
12247;BME280;6186;52.022;4.692;2023-10-09T03:42:05;102025.88;;;17.29;100.00
12247;BME280;6186;52.022;4.692;2023-10-09T03:44:34;102034.47;;;17.37;100.00
12247;BME280;6186;52.022;4.692;2023-10-09T03:46:59;102037.94;;;17.39;100.00
12247;BME280;6186;52.022;4.692;2023-10-09T03:49:24;102043.16;;;17.42;100.00
12247;BME280;6186;52.022;4.692;2023-10-09T03:51:50;102034.34;;;17.40;100.00
12247;BME280;6186;52.022;4.692;2023-10-09T03:54:15;102030.66;;;17.44;100.00
12247;BME280;6186;52.022;4.692;2023-10-09T03:56:41;102029.56;;;17.51;100.00
12247;BME280;6186;52.022;4.692;2023-10-09T03:59:06;102022.31;;;17.54;100.00
12247;BME280;6186;52.022;4.692;2023-10-09T04:01:31;102018.81;;;17.54;100.00
12247;BME280;6186;52.022;4.692;2023-10-09T04:03:58;102026.75;;;17.55;100.00
12247;BME280;6186;52.022;4.692;2023-10-09T04:06:24;102030.28;;;17.56;100.00
12247;BME280;6186;52.022;4.692;2023-10-09T04:08:49;102021.34;;;17.57;100.00
12247;BME280;6186;52.022;4.692;2023-10-09T04:11:15;102022.22;;;17.57;100.00
12247;BME280;6186;52.022;4.692;2023-10-09T04:13:40;102028.44;;;17.58;100.00
12247;BME280;6186;52.022;4.692;2023-10-09T04:16:05;102024.13;;;17.54;100.00
12247;BME280;6186;52.022;4.692;2023-10-09T04:18:30;102026.69;;;17.57;100.00
12247;BME280;6186;52.022;4.692;2023-10-09T04:20:56;102021.34;;;17.57;100.00
12247;BME280;6186;52.022;4.692;2023-10-09T04:23:21;102016.91;;;17.57;100.00
12247;BME280;6186;52.022;4.692;2023-10-09T04:25:46;102005.38;;;17.57;100.00
12247;BME280;6186;52.022;4.692;2023-10-09T04:28:11;101987.63;;;17.57;100.00
12247;BME280;6186;52.022;4.692;2023-10-09T04:30:38;101980.50;;;17.58;100.00
12247;BME280;6186;52.022;4.692;2023-10-09T04:33:03;101991.16;;;17.58;100.00
12247;BME280;6186;52.022;4.692;2023-10-09T04:35:30;101986.94;;;17.51;100.00
12247;BME280;6186;52.022;4.692;2023-10-09T04:37:55;101995.59;;;17.57;100.00
12247;BME280;6186;52.022;4.692;2023-10-09T04:40:20;101998.28;;;17.57;100.00
12247;BME280;6186;52.022;4.692;2023-10-09T04:42:46;102014.19;;;17.59;100.00
12247;BME280;6186;52.022;4.692;2023-10-09T04:45:11;102014.19;;;17.59;100.00
12247;BME280;6186;52.022;4.692;2023-10-09T04:47:37;102025.72;;;17.59;100.00
12247;BME280;6186;52.022;4.692;2023-10-09T04:50:09;102023.94;;;17.60;100.00
12247;BME280;6186;52.022;4.692;2023-10-09T04:52:35;102026.59;;;17.60;100.00
12247;BME280;6186;52.022;4.692;2023-10-09T04:55:01;102026.59;;;17.60;100.00
12247;BME280;6186;52.022;4.692;2023-10-09T04:57:26;102008.97;;;17.56;100.00
12247;BME280;6186;52.022;4.692;2023-10-09T04:59:52;102015.94;;;17.60;100.00
12247;BME280;6186;52.022;4.692;2023-10-09T05:02:17;102010.72;;;17.57;100.00
12247;BME280;6186;52.022;4.692;2023-10-09T05:04:42;102017.72;;;17.59;100.00
12247;BME280;6186;52.022;4.692;2023-10-09T05:07:07;102030.16;;;17.59;100.00
12247;BME280;6186;52.022;4.692;2023-10-09T05:09:32;102046.13;;;17.59;100.00
12247;BME280;6186;52.022;4.692;2023-10-09T05:11:58;102050.59;;;17.58;100.00
12247;BME280;6186;52.022;4.692;2023-10-09T05:14:23;102054.28;;;17.54;100.00
12247;BME280;6186;52.022;4.692;2023-10-09T05:16:48;102058.56;;;17.58;100.00
12247;BME280;6186;52.022;4.692;2023-10-09T05:19:13;102064.84;;;17.57;100.00
12247;BME280;6186;52.022;4.692;2023-10-09T05:21:39;102048.88;;;17.57;100.00
12247;BME280;6186;52.022;4.692;2023-10-09T05:24:05;102039.09;;;17.58;100.00
12247;BME280;6186;52.022;4.692;2023-10-09T05:26:30;102053.31;;;17.57;100.00
12247;BME280;6186;52.022;4.692;2023-10-09T05:28:55;102053.44;;;17.54;100.00
12247;BME280;6186;52.022;4.692;2023-10-09T05:31:21;102067.50;;;17.57;100.00
12247;BME280;6186;52.022;4.692;2023-10-09T05:33:46;102063.97;;;17.57;100.00
12247;BME280;6186;52.022;4.692;2023-10-09T05:36:12;102052.41;;;17.58;100.00
12247;BME280;6186;52.022;4.692;2023-10-09T05:38:37;102055.00;;;17.59;100.00
12247;BME280;6186;52.022;4.692;2023-10-09T05:41:02;102055.00;;;17.59;100.00
12247;BME280;6186;52.022;4.692;2023-10-09T05:43:28;102053.16;;;17.61;100.00
12247;BME280;6186;52.022;4.692;2023-10-09T05:45:53;102045.19;;;17.61;100.00
12247;BME280;6186;52.022;4.692;2023-10-09T05:48:18;102033.66;;;17.61;100.00
12247;BME280;6186;52.022;4.692;2023-10-09T05:50:43;102040.69;;;17.62;100.00
12247;BME280;6186;52.022;4.692;2023-10-09T05:53:08;102032.72;;;17.62;100.00
12247;BME280;6186;52.022;4.692;2023-10-09T05:55:34;102018.59;;;17.60;100.00
12247;BME280;6186;52.022;4.692;2023-10-09T05:57:59;102005.28;;;17.60;100.00
12247;BME280;6186;52.022;4.692;2023-10-09T06:00:25;101987.56;;;17.59;100.00
12247;BME280;6186;52.022;4.692;2023-10-09T06:02:50;102005.28;;;17.60;100.00
12247;BME280;6186;52.022;4.692;2023-10-09T06:05:15;102005.50;;;17.54;100.00
12247;BME280;6186;52.022;4.692;2023-10-09T06:07:41;102024.91;;;17.57;100.00
12247;BME280;6186;52.022;4.692;2023-10-09T06:10:07;102024.03;;;17.57;100.00
12247;BME280;6186;52.022;4.692;2023-10-09T06:12:32;102022.22;;;17.57;100.00
12247;BME280;6186;52.022;4.692;2023-10-09T06:14:57;102012.47;;;17.58;100.00
12247;BME280;6186;52.022;4.692;2023-10-09T06:17:22;101996.47;;;17.58;100.00
12247;BME280;6186;52.022;4.692;2023-10-09T06:19:48;101970.69;;;17.58;100.00
12247;BME280;6186;52.022;4.692;2023-10-09T06:22:13;101976.91;;;17.59;100.00
12247;BME280;6186;52.022;4.692;2023-10-09T06:24:39;102016.03;;;17.57;100.00
12247;BME280;6186;52.022;4.692;2023-10-09T06:27:04;102032.88;;;17.57;100.00
12247;BME280;6186;52.022;4.692;2023-10-09T06:29:30;102029.25;;;17.60;100.00
12247;BME280;6186;52.022;4.692;2023-10-09T06:31:55;102041.63;;;17.61;100.00
12247;BME280;6186;52.022;4.692;2023-10-09T06:34:21;102042.44;;;17.63;100.00
12247;BME280;6186;52.022;4.692;2023-10-09T06:36:46;102059.31;;;17.63;100.00
12247;BME280;6186;52.022;4.692;2023-10-09T06:39:11;102058.31;;;17.66;100.00
12247;BME280;6186;52.022;4.692;2023-10-09T06:41:36;102053.78;;;17.68;100.00
12247;BME280;6186;52.022;4.692;2023-10-09T06:44:02;102066.16;;;17.70;100.00
12247;BME280;6186;52.022;4.692;2023-10-09T06:46:27;102064.31;;;17.72;100.00
12247;BME280;6186;52.022;4.692;2023-10-09T06:48:52;102074.03;;;17.73;100.00
12247;BME280;6186;52.022;4.692;2023-10-09T06:51:17;102073.25;;;17.70;100.00
12247;BME280;6186;52.022;4.692;2023-10-09T06:53:43;102074.84;;;17.75;100.00
12247;BME280;6186;52.022;4.692;2023-10-09T06:56:10;102079.19;;;17.78;100.00
12247;BME280;6186;52.022;4.692;2023-10-09T06:58:35;102064.09;;;17.78;100.00
12247;BME280;6186;52.022;4.692;2023-10-09T07:01:03;102060.41;;;17.82;100.00
12247;BME280;6186;52.022;4.692;2023-10-09T07:03:28;102070.06;;;17.85;100.00
12247;BME280;6186;52.022;4.692;2023-10-09T07:06:03;102065.47;;;17.88;100.00
12247;BME280;6186;52.022;4.692;2023-10-09T07:08:28;102069.84;;;17.91;100.00
12247;BME280;6186;52.022;4.692;2023-10-09T07:10:53;102053.72;;;17.94;100.00
12247;BME280;6186;52.022;4.692;2023-10-09T07:13:18;102042.97;;;17.97;100.00
12247;BME280;6186;52.022;4.692;2023-10-09T07:15:43;102004.72;;;18.00;100.00
12247;BME280;6186;52.022;4.692;2023-10-09T07:18:09;102013.53;;;18.02;100.00
12247;BME280;6186;52.022;4.692;2023-10-09T07:20:34;102021.44;;;18.03;100.00
12247;BME280;6186;52.022;4.692;2023-10-09T07:22:59;102023.31;;;18.01;100.00
12247;BME280;6186;52.022;4.692;2023-10-09T07:25:24;102024.19;;;18.02;100.00
12247;BME280;6186;52.022;4.692;2023-10-09T07:27:49;102017.97;;;18.01;100.00
12247;BME280;6186;52.022;4.692;2023-10-09T07:30:16;102022.34;;;18.02;100.00
12247;BME280;6186;52.022;4.692;2023-10-09T07:32:42;102024.19;;;18.02;100.00
12247;BME280;6186;52.022;4.692;2023-10-09T07:35:07;102042.81;;;18.02;100.00
12247;BME280;6186;52.022;4.692;2023-10-09T07:37:33;102036.56;;;18.03;100.00
12247;BME280;6186;52.022;4.692;2023-10-09T07:39:58;102029.38;;;18.05;100.00
12247;BME280;6186;52.022;4.692;2023-10-09T07:42:26;102025.75;;;18.07;100.00
12247;BME280;6186;52.022;4.692;2023-10-09T07:44:51;102012.41;;;18.07;100.00
12247;BME280;6186;52.022;4.692;2023-10-09T07:47:16;102000.59;;;18.14;100.00
12247;BME280;6186;52.022;4.692;2023-10-09T07:49:42;102000.41;;;18.19;100.00
12247;BME280;6186;52.022;4.692;2023-10-09T07:52:07;101997.56;;;18.23;100.00
12247;BME280;6186;52.022;4.692;2023-10-09T07:54:32;101990.25;;;18.28;100.00
12247;BME280;6186;52.022;4.692;2023-10-09T07:56:58;102010.53;;;18.32;100.00
12247;BME280;6186;52.022;4.692;2023-10-09T07:59:24;102020.16;;;18.36;100.00
12247;BME280;6186;52.022;4.692;2023-10-09T08:01:50;102027.13;;;18.40;100.00
12247;BME280;6186;52.022;4.692;2023-10-09T08:04:15;102037.66;;;18.45;100.00
12247;BME280;6186;52.022;4.692;2023-10-09T08:06:44;102049.88;;;18.50;100.00
12247;BME280;6186;52.022;4.692;2023-10-09T08:09:10;102053.22;;;18.55;100.00
12247;BME280;6186;52.022;4.692;2023-10-09T08:11:35;102047.00;;;18.55;100.00
12247;BME280;6186;52.022;4.692;2023-10-09T08:14:00;102052.13;;;18.61;100.00
12247;BME280;6186;52.022;4.692;2023-10-09T08:16:26;102062.47;;;18.68;100.00
12247;BME280;6186;52.022;4.692;2023-10-09T08:18:51;102054.53;;;18.67;100.00
12247;BME280;6186;52.022;4.692;2023-10-09T08:21:18;102079.06;;;18.76;100.00
12247;BME280;6186;52.022;4.692;2023-10-09T08:23:43;102081.50;;;18.83;100.00
12247;BME280;6186;52.022;4.692;2023-10-09T08:26:09;102084.84;;;18.88;100.00
12247;BME280;6186;52.022;4.692;2023-10-09T08:28:34;102095.28;;;18.94;100.00
12247;BME280;6186;52.022;4.692;2023-10-09T08:30:59;102096.75;;;19.01;100.00
12247;BME280;6186;52.022;4.692;2023-10-09T08:33:24;102101.72;;;19.10;100.00
12247;BME280;6186;52.022;4.692;2023-10-09T08:35:49;102104.16;;;19.16;100.00
12247;BME280;6186;52.022;4.692;2023-10-09T08:38:16;102107.38;;;19.24;100.00
12247;BME280;6186;52.022;4.692;2023-10-09T08:40:42;102108.88;;;19.31;100.00
12247;BME280;6186;52.022;4.692;2023-10-09T08:43:17;102116.59;;;19.38;100.00
12247;BME280;6186;52.022;4.692;2023-10-09T08:45:46;102118.94;;;19.46;100.00
12247;BME280;6186;52.022;4.692;2023-10-09T08:48:12;102125.78;;;19.53;100.00
12247;BME280;6186;52.022;4.692;2023-10-09T08:50:37;102123.72;;;19.59;100.00
12247;BME280;6186;52.022;4.692;2023-10-09T08:53:02;102127.81;;;19.68;100.00
12247;BME280;6186;52.022;4.692;2023-10-09T08:55:29;102139.66;;;19.83;100.00
12247;BME280;6186;52.022;4.692;2023-10-09T08:57:54;102142.00;;;19.90;100.00
12247;BME280;6186;52.022;4.692;2023-10-09T09:00:20;102128.44;;;19.95;100.00
12247;BME280;6186;52.022;4.692;2023-10-09T09:02:45;102133.47;;;20.02;100.00
12247;BME280;6186;52.022;4.692;2023-10-09T09:05:17;102140.13;;;20.12;100.00
12247;BME280;6186;52.022;4.692;2023-10-09T09:07:43;102141.72;;;20.16;100.00
12247;BME280;6186;52.022;4.692;2023-10-09T09:10:08;102140.69;;;20.20;100.00
12247;BME280;6186;52.022;4.692;2023-10-09T09:12:38;102144.81;;;20.27;100.00
12247;BME280;6186;52.022;4.692;2023-10-09T09:15:03;102144.63;;;20.32;100.00
12247;BME280;6186;52.022;4.692;2023-10-09T09:17:32;102147.38;;;20.30;100.00
12247;BME280;6186;52.022;4.692;2023-10-09T09:19:57;102153.00;;;20.24;100.00
12247;BME280;6186;52.022;4.692;2023-10-09T09:22:23;102149.59;;;20.21;100.00
12247;BME280;6186;52.022;4.692;2023-10-09T09:24:58;102147.03;;;20.18;100.00
12247;BME280;6186;52.022;4.692;2023-10-09T09:27:43;102152.13;;;20.24;100.00
12247;BME280;6186;52.022;4.692;2023-10-09T09:30:22;102158.34;;;20.24;100.00
12247;BME280;6186;52.022;4.692;2023-10-09T09:32:47;102147.38;;;20.30;100.00
12247;BME280;6186;52.022;4.692;2023-10-09T09:35:12;102145.09;;;20.41;100.00
12247;BME280;6186;52.022;4.692;2023-10-09T09:37:38;102146.25;;;20.54;100.00
12247;BME280;6186;52.022;4.692;2023-10-09T09:40:03;102153.94;;;20.62;100.00
12247;BME280;6186;52.022;4.692;2023-10-09T09:42:29;102143.16;;;20.63;100.00
12247;BME280;6186;52.022;4.692;2023-10-09T09:44:58;102154.38;;;20.72;100.00
12247;BME280;6186;52.022;4.692;2023-10-09T09:47:25;102146.13;;;20.76;100.00
12247;BME280;6186;52.022;4.692;2023-10-09T09:49:51;102155.09;;;20.75;100.00
12247;BME280;6186;52.022;4.692;2023-10-09T09:52:17;102149.59;;;20.78;100.00
12247;BME280;6186;52.022;4.692;2023-10-09T09:54:42;102145.84;;;20.82;100.00
12247;BME280;6186;52.022;4.692;2023-10-09T09:57:07;102136.72;;;20.86;100.00
12247;BME280;6186;52.022;4.692;2023-10-09T09:59:37;102151.72;;;20.90;100.00
12247;BME280;6186;52.022;4.692;2023-10-09T10:02:03;102140.22;;;20.88;100.00
12247;BME280;6186;52.022;4.692;2023-10-09T10:04:31;102142.97;;;20.87;100.00
12247;BME280;6186;52.022;4.692;2023-10-09T10:06:57;102139.13;;;20.92;100.00
12247;BME280;6186;52.022;4.692;2023-10-09T10:09:36;102140.00;;;20.93;100.00
12247;BME280;6186;52.022;4.692;2023-10-09T10:12:02;102137.16;;;20.96;100.00
12247;BME280;6186;52.022;4.692;2023-10-09T10:17:19;102144.84;;;21.22;100.00
12247;BME280;6186;52.022;4.692;2023-10-09T10:22:25;102150.81;;;21.81;100.00
12247;BME280;6186;52.022;4.692;2023-10-09T10:24:51;102154.00;;;21.89;100.00
12247;BME280;6186;52.022;4.692;2023-10-09T10:27:17;102152.63;;;21.98;100.00
12247;BME280;6186;52.022;4.692;2023-10-09T10:29:42;102155.59;;;22.26;100.00
12247;BME280;6186;52.022;4.692;2023-10-09T10:32:08;102152.03;;;22.60;100.00
12247;BME280;6186;52.022;4.692;2023-10-09T10:34:52;102151.88;;;22.63;100.00
12247;BME280;6186;52.022;4.692;2023-10-09T10:37:17;102167.78;;;22.66;100.00
12247;BME280;6186;52.022;4.692;2023-10-09T10:39:52;102164.75;;;22.56;100.00
12247;BME280;6186;52.022;4.692;2023-10-09T10:42:17;102174.28;;;22.44;100.00
12247;BME280;6186;52.022;4.692;2023-10-09T10:44:42;102176.84;;;22.30;100.00
12247;BME280;6186;52.022;4.692;2023-10-09T10:47:09;102175.19;;;22.28;100.00
12247;BME280;6186;52.022;4.692;2023-10-09T10:49:35;102169.56;;;22.32;100.00
12247;BME280;6186;52.022;4.692;2023-10-09T10:52:00;102157.47;;;22.41;100.00
12247;BME280;6186;52.022;4.692;2023-10-09T10:54:26;102161.50;;;22.67;100.00
12247;BME280;6186;52.022;4.692;2023-10-09T10:56:51;102171.22;;;22.85;100.00
12247;BME280;6186;52.022;4.692;2023-10-09T10:59:17;102171.16;;;23.02;100.00
12247;BME280;6186;52.022;4.692;2023-10-09T11:01:42;102165.25;;;23.11;100.00
12247;BME280;6186;52.022;4.692;2023-10-09T11:04:11;102167.16;;;23.09;100.00
12247;BME280;6186;52.022;4.692;2023-10-09T11:06:37;102172.81;;;23.20;100.00
12247;BME280;6186;52.022;4.692;2023-10-09T11:09:07;102166.66;;;23.33;100.00
12247;BME280;6186;52.022;4.692;2023-10-09T11:11:33;102164.59;;;23.54;100.00
12247;BME280;6186;52.022;4.692;2023-10-09T11:14:08;102162.41;;;23.61;100.00
12247;BME280;6186;52.022;4.692;2023-10-09T11:16:36;102138.75;;;23.52;100.00
12247;BME280;6186;52.022;4.692;2023-10-09T11:19:01;102144.38;;;23.47;100.00
12247;BME280;6186;52.022;4.692;2023-10-09T11:21:26;102154.00;;;23.35;100.00
12247;BME280;6186;52.022;4.692;2023-10-09T11:23:51;102165.53;;;23.38;100.00
12247;BME280;6186;52.022;4.692;2023-10-09T11:26:17;102158.44;;;23.52;100.00
12247;BME280;6186;52.022;4.692;2023-10-09T11:28:42;102160.47;;;23.63;100.00
12247;BME280;6186;52.022;4.692;2023-10-09T11:31:09;102155.19;;;23.77;100.00
12247;BME280;6186;52.022;4.692;2023-10-09T11:33:48;102163.66;;;24.14;100.00
12247;BME280;6186;52.022;4.692;2023-10-09T11:36:15;102157.44;;;24.28;100.00
12247;BME280;6186;52.022;4.692;2023-10-09T11:38:41;102149.06;;;24.18;100.00
12247;BME280;6186;52.022;4.692;2023-10-09T11:41:16;102152.81;;;24.00;100.00
12247;BME280;6186;52.022;4.692;2023-10-09T11:43:48;102148.56;;;23.82;100.00
12247;BME280;6186;52.022;4.692;2023-10-09T11:46:13;102145.03;;;23.66;100.00
12247;BME280;6186;52.022;4.692;2023-10-09T11:48:38;102148.47;;;23.54;100.00
12247;BME280;6186;52.022;4.692;2023-10-09T11:51:04;102143.97;;;23.39;100.00
12247;BME280;6186;52.022;4.692;2023-10-09T11:53:48;102142.38;;;23.19;100.00
12247;BME280;6186;52.022;4.692;2023-10-09T11:56:13;102155.03;;;23.02;100.00
12247;BME280;6186;52.022;4.692;2023-10-09T11:58:38;102146.44;;;22.80;100.00
12247;BME280;6186;52.022;4.692;2023-10-09T12:01:13;102148.22;;;22.64;100.00
12247;BME280;6186;52.022;4.692;2023-10-09T12:03:38;102146.09;;;22.53;100.00
12247;BME280;6186;52.022;4.692;2023-10-09T12:06:04;102146.31;;;22.48;100.00
12247;BME280;6186;52.022;4.692;2023-10-09T12:08:29;102143.91;;;22.44;100.00
12247;BME280;6186;52.022;4.692;2023-10-09T12:10:55;102138.06;;;22.36;100.00
12247;BME280;6186;52.022;4.692;2023-10-09T12:13:24;102138.25;;;22.33;100.00
12247;BME280;6186;52.022;4.692;2023-10-09T12:15:50;102145.56;;;22.29;100.00
12247;BME280;6186;52.022;4.692;2023-10-09T12:18:16;102141.16;;;22.28;100.00
12247;BME280;6186;52.022;4.692;2023-10-09T12:20:42;102140.28;;;22.28;100.00
12247;BME280;6186;52.022;4.692;2023-10-09T12:23:07;102135.94;;;22.42;100.00
12247;BME280;6186;52.022;4.692;2023-10-09T12:25:33;102137.00;;;22.73;100.00
12247;BME280;6186;52.022;4.692;2023-10-09T12:28:00;102131.81;;;23.01;100.00
12247;BME280;6186;52.022;4.692;2023-10-09T12:30:25;102139.78;;;23.18;100.00
12247;BME280;6186;52.022;4.692;2023-10-09T12:32:50;102142.13;;;23.24;100.00
12247;BME280;6186;52.022;4.692;2023-10-09T12:35:15;102135.97;;;23.22;100.00
12247;BME280;6186;52.022;4.692;2023-10-09T12:37:41;102141.41;;;23.20;100.00
12247;BME280;6186;52.022;4.692;2023-10-09T12:40:06;102135.19;;;23.20;100.00
12247;BME280;6186;52.022;4.692;2023-10-09T12:42:32;102140.72;;;23.17;100.00
12247;BME280;6186;52.022;4.692;2023-10-09T12:44:57;102143.06;;;23.07;100.00
12247;BME280;6186;52.022;4.692;2023-10-09T12:47:22;102137.34;;;22.98;100.00
12247;BME280;6186;52.022;4.692;2023-10-09T12:49:47;102138.75;;;22.89;100.00